Time;durP1;ratioP1;P1;durP2;ratioP2;P2;SDS_P1;SDS_P2;PMS_P1;PMS_P2;Temp;Humidity;BMP_temperature;BMP_pressure;BME280_temperature;BME280_humidity;BME280_pressure;Samples;Min_cycle;Max_cycle;Signal;HPM_P1;HPM_P2
2023/09/12 00:00:34;;;;;;;10.00;4.40;;;;;;;24.55;31.71;100663.14;102237;1314;69185;-88
2023/09/12 00:03:00;;;;;;;6.80;4.70;;;;;;;24.55;31.76;100664.00;102170;1314;69233;-88
2023/09/12 00:05:25;;;;;;;8.50;4.90;;;;;;;24.56;31.87;100662.05;102165;1313;69324;-87
2023/09/12 00:07:53;;;;;;;9.20;4.70;;;;;;;24.55;31.77;100663.81;101909;1316;69405;-87
2023/09/12 00:10:21;;;;;;;7.50;4.70;;;;;;;24.54;31.71;100667.54;102252;1316;69306;-92
2023/09/12 00:12:47;;;;;;;7.10;4.50;;;;;;;24.54;31.76;100668.20;102007;1315;69247;-87
2023/09/12 00:15:12;;;;;;;6.70;4.40;;;;;;;24.53;31.83;100666.16;102178;1315;70818;-87
2023/09/12 00:17:38;;;;;;;7.70;4.20;;;;;;;24.53;31.90;100669.20;101988;1316;69295;-87
2023/09/12 00:20:06;;;;;;;5.50;4.30;;;;;;;24.51;31.85;100664.52;102174;1312;69273;-88
2023/09/12 00:22:32;;;;;;;9.20;4.40;;;;;;;24.52;31.93;100667.25;102224;1311;69308;-88
2023/09/12 00:24:57;;;;;;;8.00;4.50;;;;;;;24.51;31.92;100664.48;102005;1312;69232;-87
2023/09/12 00:27:23;;;;;;;6.30;4.30;;;;;;;24.50;31.88;100667.93;102154;1315;69285;-87
2023/09/12 00:29:49;;;;;;;5.20;4.10;;;;;;;24.50;31.90;100672.20;102198;1312;69323;-87
2023/09/12 00:32:14;;;;;;;6.20;4.60;;;;;;;24.49;31.94;100671.80;102212;1311;69266;-87
2023/09/12 00:34:40;;;;;;;5.70;3.90;;;;;;;24.49;32.10;100668.82;102010;1311;69240;-87
2023/09/12 00:39:47;;;;;;;5.60;4.30;;;;;;;24.48;31.99;100664.83;102447;1309;73904;-87
2023/09/12 00:42:12;;;;;;;8.90;4.70;;;;;;;24.48;32.11;100665.39;102436;1313;69109;-87
2023/09/12 00:44:38;;;;;;;8.70;4.00;;;;;;;24.48;32.39;100662.86;102468;1308;69199;-87
2023/09/12 00:47:04;;;;;;;5.90;4.20;;;;;;;24.48;32.26;100661.84;102307;1309;69865;-87
2023/09/12 00:49:29;;;;;;;7.00;4.20;;;;;;;24.47;32.35;100659.54;102470;1312;69285;-87
2023/09/12 00:51:55;;;;;;;7.80;4.30;;;;;;;24.47;32.32;100659.49;102175;1309;69214;-87
2023/09/12 00:54:21;;;;;;;8.00;4.20;;;;;;;24.46;32.40;100662.95;102431;1314;69301;-87
2023/09/12 00:56:46;;;;;;;6.10;3.90;;;;;;;24.46;32.58;100663.24;102554;1309;69183;-87
2023/09/12 00:59:12;;;;;;;6.30;3.90;;;;;;;24.46;32.56;100664.17;102306;1311;69329;-87
2023/09/12 01:01:37;;;;;;;6.00;3.50;;;;;;;24.45;32.52;100665.56;102330;1309;69303;-87
2023/09/12 01:04:12;;;;;;;6.40;3.60;;;;;;;24.44;32.43;100663.38;102443;1312;69257;-92
2023/09/12 01:06:38;;;;;;;7.40;4.10;;;;;;;24.43;32.57;100660.97;102192;1309;69195;-87
2023/09/12 01:09:04;;;;;;;4.90;3.90;;;;;;;24.44;32.59;100668.11;102429;1309;69225;-87
2023/09/12 01:11:29;;;;;;;6.80;3.80;;;;;;;24.43;32.49;100667.35;102333;1311;69372;-87
2023/09/12 01:13:55;;;;;;;6.40;3.60;;;;;;;24.42;32.54;100665.97;102481;1314;69285;-87
2023/09/12 01:16:24;;;;;;;8.10;3.90;;;;;;;24.43;32.72;100667.83;102387;1308;69397;-88
2023/09/12 01:18:49;;;;;;;6.60;3.80;;;;;;;24.42;32.61;100668.45;102259;1312;69419;-87
2023/09/12 01:21:36;;;;;;;5.10;4.00;;;;;;;24.42;32.93;100664.48;102591;1312;69210;-87
2023/09/12 01:24:23;;;;;;;8.20;3.60;;;;;;;24.40;32.71;100664.30;102504;1311;73698;-87
2023/09/12 01:26:53;;;;;;;8.60;4.00;;;;;;;24.40;32.67;100666.98;102424;1312;70015;-88
2023/09/12 01:29:18;;;;;;;7.80;4.20;;;;;;;24.41;32.63;100669.70;102445;1310;69220;-87
2023/09/12 01:31:45;;;;;;;8.00;4.40;;;;;;;24.40;32.70;100663.84;102329;1312;67272;-87
2023/09/12 01:34:11;;;;;;;5.10;3.60;;;;;;;24.39;32.79;100668.68;102347;1310;69262;-88
2023/09/12 01:36:37;;;;;;;6.00;3.80;;;;;;;24.39;32.76;100664.98;102224;1311;69297;-87
2023/09/12 01:39:03;;;;;;;5.80;3.90;;;;;;;24.39;32.70;100668.52;102280;1311;69420;-87
2023/09/12 01:41:29;;;;;;;4.10;3.40;;;;;;;24.38;32.82;100667.30;102422;1312;69295;-87
2023/09/12 01:43:54;;;;;;;6.50;3.60;;;;;;;24.37;32.94;100671.88;102300;1312;69393;-87
2023/09/12 01:46:21;;;;;;;7.30;4.10;;;;;;;24.38;32.95;100672.34;102357;1310;73595;-87
2023/09/12 01:51:23;;;;;;;8.30;4.20;;;;;;;24.37;32.90;100676.92;102419;1311;67543;-87
2023/09/12 01:53:48;;;;;;;6.20;3.80;;;;;;;24.37;33.04;100679.77;102141;1311;69219;-87
2023/09/12 01:56:14;;;;;;;6.00;3.90;;;;;;;24.37;33.01;100680.73;102296;1316;69152;-87
2023/09/12 01:58:40;;;;;;;5.80;3.90;;;;;;;24.37;32.91;100679.86;102571;1311;69220;-87
2023/09/12 02:01:05;;;;;;;5.50;3.70;;;;;;;24.36;32.99;100680.33;102399;1308;69409;-88
2023/09/12 02:03:30;;;;;;;6.20;3.90;;;;;;;24.36;32.84;100679.05;102345;1311;69311;-87
2023/09/12 02:05:56;;;;;;;8.90;4.10;;;;;;;24.36;33.09;100680.44;102415;1313;69440;-87
2023/09/12 02:08:22;;;;;;;7.50;4.40;;;;;;;24.35;33.05;100678.84;102371;1309;69304;-87
2023/09/12 02:10:47;;;;;;;8.80;4.20;;;;;;;24.35;32.93;100673.95;102431;1314;69317;-87
2023/09/12 02:13:13;;;;;;;11.80;4.00;;;;;;;24.35;33.02;100673.80;102514;1309;69909;-88
2023/09/12 02:15:38;;;;;;;8.40;4.40;;;;;;;24.33;33.11;100676.34;102089;1315;69115;-87
2023/09/12 02:18:04;;;;;;;12.40;4.20;;;;;;;24.34;33.08;100681.63;102070;1317;69344;-87
2023/09/12 02:20:32;;;;;;;9.20;3.80;;;;;;;24.33;33.09;100677.33;102458;1309;69295;-86
2023/09/12 02:22:57;;;;;;;8.10;4.10;;;;;;;24.33;32.95;100680.27;102478;1313;69173;-87
2023/09/12 02:25:23;;;;;;;9.00;4.60;;;;;;;24.33;33.11;100681.39;102470;1310;70270;-87
2023/09/12 02:27:52;;;;;;;6.00;3.80;;;;;;;24.33;33.09;100683.75;102301;1311;69302;-93
2023/09/12 02:30:18;;;;;;;9.80;4.20;;;;;;;24.32;33.10;100685.00;102177;1311;73328;-87
2023/09/12 02:32:44;;;;;;;9.90;4.40;;;;;;;24.32;33.14;100685.79;102421;1310;69775;-87
2023/09/12 02:35:10;;;;;;;8.60;4.00;;;;;;;24.31;33.08;100685.05;102276;1310;69235;-87
2023/09/12 02:37:35;;;;;;;10.70;4.30;;;;;;;24.31;33.17;100682.60;102200;1312;69292;-87
2023/09/12 02:40:05;;;;;;;9.80;4.30;;;;;;;24.31;33.11;100686.71;102249;1311;66605;-87
2023/09/12 02:42:31;;;;;;;10.50;4.20;;;;;;;24.30;33.18;100688.21;102088;1311;69119;-87
2023/09/12 02:44:56;;;;;;;6.70;4.00;;;;;;;24.30;33.26;100685.49;102172;1311;69186;-87
2023/09/12 02:47:22;;;;;;;11.20;4.10;;;;;;;24.30;33.20;100683.74;101886;1311;69441;-87
2023/09/12 02:49:48;;;;;;;9.50;4.40;;;;;;;24.29;33.20;100683.96;102654;1310;69261;-87
2023/09/12 02:52:14;;;;;;;21.30;5.60;;;;;;;24.28;33.22;100682.33;102539;1313;69228;-86
2023/09/12 02:54:39;;;;;;;13.80;6.60;;;;;;;24.28;33.28;100684.58;102543;1317;69292;-87
2023/09/12 02:57:05;;;;;;;12.70;5.80;;;;;;;24.28;33.19;100683.45;103075;1314;69308;-87
2023/09/12 02:59:31;;;;;;;9.80;5.40;;;;;;;24.28;33.30;100678.57;102083;1311;69240;-86
2023/09/12 03:01:56;;;;;;;15.80;6.10;;;;;;;24.28;33.26;100678.83;102084;1311;69848;-86
2023/09/12 03:04:24;;;;;;;47.60;7.30;;;;;;;24.27;33.42;100677.20;102216;1311;69418;-87
2023/09/12 03:06:50;;;;;;;25.90;5.70;;;;;;;24.23;33.13;100676.30;102105;1310;69282;-88
2023/09/12 03:09:17;;;;;;;19.10;5.30;;;;;;;24.13;33.24;100679.33;102102;1311;69162;-87
2023/09/12 03:11:42;;;;;;;11.10;5.00;;;;;;;24.02;33.22;100681.29;102349;1311;69285;-88
2023/09/12 03:14:08;;;;;;;12.80;4.90;;;;;;;23.91;33.30;100680.09;102199;1311;69429;-87
2023/09/12 03:16:33;;;;;;;9.30;4.00;;;;;;;23.81;33.36;100685.72;102427;1312;69291;-87
2023/09/12 03:19:01;;;;;;;7.90;3.60;;;;;;;23.76;33.81;100686.21;102389;1310;69301;-88
2023/09/12 03:24:18;;;;;;;16.50;5.20;;;;;;;23.75;34.77;100694.09;103216;1311;72932;-91
2023/09/12 03:30:05;;;;;;;14.20;5.10;;;;;;;23.72;34.96;100689.89;103535;1308;69252;-91
2023/09/12 03:35:42;;;;;;;15.30;4.50;;;;;;;23.69;35.39;100694.70;103669;1308;69297;-91
2023/09/12 03:41:35;;;;;;;11.80;4.50;;;;;;;23.57;34.97;100695.81;103786;1304;67970;-91
2023/09/12 03:47:11;;;;;;;9.60;4.50;;;;;;;23.41;34.65;100690.33;103875;1304;67906;-91
2023/09/12 03:55:38;;;;;;;15.10;6.20;;;;;;;23.24;34.97;100682.38;103805;1301;68126;-91
2023/09/12 04:01:16;;;;;;;19.70;6.10;;;;;;;23.12;34.94;100683.70;103983;1304;67717;-90
2023/09/12 04:06:55;;;;;;;14.20;4.70;;;;;;;23.03;34.98;100681.80;103598;1302;73117;-90
2023/09/12 04:19:31;;;;;;;14.70;3.90;;;;;;;22.92;35.43;100688.93;81067;1336;68673;-87
2023/09/12 04:21:59;;;;;;;18.30;4.80;;;;;;;22.92;35.68;100691.90;103667;1308;73808;-88
2023/09/12 04:24:28;;;;;;;15.70;4.50;;;;;;;22.92;35.70;100689.19;103563;1308;71424;-92
2023/09/12 04:27:00;;;;;;;19.00;4.30;;;;;;;22.92;35.73;100692.73;103672;1308;67851;-90
2023/09/12 04:29:29;;;;;;;13.30;4.10;;;;;;;22.91;35.86;100693.20;103371;1311;67031;-90
2023/09/12 04:31:59;;;;;;;14.20;5.00;;;;;;;22.90;36.03;100694.89;103551;1310;74751;-88
2023/09/12 04:34:25;;;;;;;29.50;6.10;;;;;;;22.88;35.82;100692.59;103512;1311;83290;-89
2023/09/12 04:36:53;;;;;;;34.40;5.20;;;;;;;22.87;36.17;100694.23;103934;1304;66803;-89
2023/09/12 05:59:40;;;;;;;;;;;;;;;22.89;36.86;100727.27;108704;1264;80886;-91
2023/09/12 07:17:32;;;;;;;;;;;;;;;23.32;36.46;100770.23;108839;1266;71699;-91
2023/09/12 08:12:10;;;;;;;;;;;;;;;23.86;35.68;100762.45;108621;1268;68124;31
2023/09/12 08:42:21;;;;;;;;;;;;;;;24.02;35.19;100770.42;108430;1265;499964;-91
2023/09/12 09:33:38;;;;;;;;;;;;;;;24.39;34.79;100738.77;108422;1267;72682;-91
2023/09/12 09:38:39;;;;;;;;;;;;;;;24.45;35.02;100736.70;108346;1264;69129;-91
2023/09/12 09:44:01;;;;;;;;;;;;;;;24.50;34.89;100738.25;108696;1264;545884;-93
2023/09/12 09:52:06;;;;;;;;;;;;;;;24.66;35.15;100729.27;108449;1265;527031;-92
2023/09/12 09:57:43;;;;;;;;;;;;;;;24.74;35.33;100724.90;108574;1265;68340;-89
2023/09/12 10:44:19;;;;;;;;;;;;;;;24.81;34.90;100698.10;108931;1263;71919;-91
2023/09/12 10:53:28;;;;;;;;;;;;;;;24.81;34.82;100685.80;108497;1265;66804;-91
2023/09/12 13:15:44;;;;;;;;;;;;;;;25.14;35.55;100587.02;108024;1264;560327;-92
2023/09/12 13:26:58;;;;;;;;;;;;;;;;;;;;;
2023/09/12 13:38:39;;;;;;;;;;;;;;;25.28;35.92;100575.00;108843;1263;68319;-90
2023/09/12 13:53:10;;;;;;;;;;;;;;;25.38;36.03;100570.79;108166;1264;560970;31
2023/09/12 16:52:15;;;;;;;;;;;;;;;25.30;35.51;100580.34;108403;1267;65808;-93
2023/09/12 19:09:09;;;;;;;;;;;;;;;25.13;35.90;100666.23;108825;1267;66924;-92
